sensor_id;sensor_type;location;lat;lon;timestamp;pressure;altitude;pressure_sealevel;temperature;humidity
40908;BME280;51055;59.436;24.778;2022-11-13T00:01:24;102294.59;;;9.50;79.48
40908;BME280;51055;59.436;24.778;2022-11-13T00:03:52;102299.13;;;9.48;80.10
40908;BME280;51055;59.436;24.778;2022-11-13T00:06:20;102295.69;;;9.46;79.80
40908;BME280;51055;59.436;24.778;2022-11-13T00:08:52;102285.19;;;9.45;80.28
40908;BME280;51055;59.436;24.778;2022-11-13T00:11:20;102289.59;;;9.44;80.49
40908;BME280;51055;59.436;24.778;2022-11-13T00:13:48;102279.88;;;9.45;80.92
40908;BME280;51055;59.436;24.778;2022-11-13T00:16:18;102283.59;;;9.40;80.84
40908;BME280;51055;59.436;24.778;2022-11-13T00:18:47;102299.72;;;9.36;81.13
40908;BME280;51055;59.436;24.778;2022-11-13T00:21:17;102294.50;;;9.34;80.86
40908;BME280;51055;59.436;24.778;2022-11-13T00:23:45;102293.66;;;9.34;81.48
40908;BME280;51055;59.436;24.778;2022-11-13T00:26:21;102305.00;;;9.36;81.18
40908;BME280;51055;59.436;24.778;2022-11-13T00:28:57;102292.78;;;9.33;81.22
40908;BME280;51055;59.436;24.778;2022-11-13T00:31:25;102292.06;;;9.30;81.25
40908;BME280;51055;59.436;24.778;2022-11-13T00:33:53;102300.66;;;9.35;81.35
40908;BME280;51055;59.436;24.778;2022-11-13T00:36:40;102306.28;;;9.29;81.32
40908;BME280;51055;59.436;24.778;2022-11-13T00:39:08;102296.38;;;9.32;81.38
40908;BME280;51055;59.436;24.778;2022-11-13T00:41:38;102299.09;;;9.31;81.57
40908;BME280;51055;59.436;24.778;2022-11-13T00:44:06;102316.75;;;9.30;81.27
40908;BME280;51055;59.436;24.778;2022-11-13T00:46:34;102311.63;;;9.27;81.17
40908;BME280;51055;59.436;24.778;2022-11-13T00:49:04;102329.28;;;9.27;81.02
40908;BME280;51055;59.436;24.778;2022-11-13T00:51:32;102311.41;;;9.32;81.00
40908;BME280;51055;59.436;24.778;2022-11-13T00:53:59;102313.25;;;9.30;81.31
40908;BME280;51055;59.436;24.778;2022-11-13T00:56:27;102319.50;;;9.29;80.83
40908;BME280;51055;59.436;24.778;2022-11-13T00:58:54;102316.22;;;9.24;80.89
40908;BME280;51055;59.436;24.778;2022-11-13T01:01:22;102317.22;;;9.21;81.17
40908;BME280;51055;59.436;24.778;2022-11-13T01:03:50;102328.81;;;9.19;81.85
40908;BME280;51055;59.436;24.778;2022-11-13T01:06:21;102334.97;;;9.19;81.78
40908;BME280;51055;59.436;24.778;2022-11-13T01:08:53;102337.69;;;9.18;81.69
40908;BME280;51055;59.436;24.778;2022-11-13T01:11:22;102342.91;;;9.19;81.63
40908;BME280;51055;59.436;24.778;2022-11-13T01:13:51;102340.34;;;9.18;82.07
40908;BME280;51055;59.436;24.778;2022-11-13T01:16:22;102354.34;;;9.20;82.61
40908;BME280;51055;59.436;24.778;2022-11-13T01:18:53;102368.59;;;9.17;82.72
40908;BME280;51055;59.436;24.778;2022-11-13T01:21:23;102355.34;;;9.17;82.69
40908;BME280;51055;59.436;24.778;2022-11-13T01:23:52;102358.16;;;9.14;82.46
40908;BME280;51055;59.436;24.778;2022-11-13T01:26:24;102360.78;;;9.14;82.22
40908;BME280;51055;59.436;24.778;2022-11-13T01:28:55;102368.81;;;9.13;82.13
40908;BME280;51055;59.436;24.778;2022-11-13T01:31:26;102360.94;;;9.11;81.42
40908;BME280;51055;59.436;24.778;2022-11-13T01:33:54;102364.50;;;9.10;81.10
40908;BME280;51055;59.436;24.778;2022-11-13T01:36:24;102362.81;;;9.09;81.14
40908;BME280;51055;59.436;24.778;2022-11-13T01:38:53;102381.34;;;9.09;80.93
40908;BME280;51055;59.436;24.778;2022-11-13T01:41:26;102366.28;;;9.10;81.44
40908;BME280;51055;59.436;24.778;2022-11-13T01:43:55;102384.00;;;9.09;81.36
40908;BME280;51055;59.436;24.778;2022-11-13T01:51:53;102383.03;;;9.10;80.63
40908;BME280;51055;59.436;24.778;2022-11-13T01:54:26;102380.41;;;9.10;80.51
40908;BME280;51055;59.436;24.778;2022-11-13T01:56:55;102387.00;;;9.02;81.13
40908;BME280;51055;59.436;24.778;2022-11-13T01:59:25;102390.66;;;8.99;81.67
40908;BME280;51055;59.436;24.778;2022-11-13T02:01:55;102388.91;;;8.98;81.47
40908;BME280;51055;59.436;24.778;2022-11-13T02:04:23;102388.00;;;8.99;81.49
40908;BME280;51055;59.436;24.778;2022-11-13T02:06:55;102389.78;;;8.99;82.09
40908;BME280;51055;59.436;24.778;2022-11-13T02:09:26;102404.84;;;8.97;81.91
40908;BME280;51055;59.436;24.778;2022-11-13T02:11:56;102404.75;;;9.00;81.63
40908;BME280;51055;59.436;24.778;2022-11-13T02:14:27;102410.88;;;9.00;81.76
40908;BME280;51055;59.436;24.778;2022-11-13T02:16:58;102409.22;;;8.98;81.90
40908;BME280;51055;59.436;24.778;2022-11-13T02:19:30;102412.03;;;8.95;82.40
40908;BME280;51055;59.436;24.778;2022-11-13T02:24:43;102410.94;;;8.99;81.91
40908;BME280;51055;59.436;24.778;2022-11-13T02:30:31;102422.75;;;8.92;82.33
40908;BME280;51055;59.436;24.778;2022-11-13T02:32:59;102422.88;;;8.88;82.68
40908;BME280;51055;59.436;24.778;2022-11-13T02:35:32;102414.84;;;8.90;82.51
40908;BME280;51055;59.436;24.778;2022-11-13T02:38:03;102402.50;;;8.90;82.50
40908;BME280;51055;59.436;24.778;2022-11-13T02:40:32;102397.06;;;8.94;82.07
40908;BME280;51055;59.436;24.778;2022-11-13T02:42:59;102407.00;;;8.88;82.05
40908;BME280;51055;59.436;24.778;2022-11-13T02:45:27;102406.22;;;8.86;82.35
40908;BME280;51055;59.436;24.778;2022-11-13T02:47:55;102404.66;;;8.82;82.47
40908;BME280;51055;59.436;24.778;2022-11-13T02:50:23;102411.63;;;8.83;82.71
40908;BME280;51055;59.436;24.778;2022-11-13T02:52:50;102415.28;;;8.81;82.81
40908;BME280;51055;59.436;24.778;2022-11-13T02:55:18;102427.66;;;8.80;82.90
40908;BME280;51055;59.436;24.778;2022-11-13T02:57:46;102428.66;;;8.78;82.56
40908;BME280;51055;59.436;24.778;2022-11-13T03:00:14;102427.00;;;8.75;82.73
40908;BME280;51055;59.436;24.778;2022-11-13T03:02:42;102434.81;;;8.78;83.03
40908;BME280;51055;59.436;24.778;2022-11-13T03:05:09;102437.41;;;8.80;82.91
40908;BME280;51055;59.436;24.778;2022-11-13T03:07:40;102437.50;;;8.77;82.85
40908;BME280;51055;59.436;24.778;2022-11-13T03:10:09;102436.69;;;8.76;83.31
40908;BME280;51055;59.436;24.778;2022-11-13T03:12:37;102440.28;;;8.74;83.40
40908;BME280;51055;59.436;24.778;2022-11-13T03:15:06;102438.72;;;8.70;83.58
40908;BME280;51055;59.436;24.778;2022-11-13T03:17:34;102441.44;;;8.68;83.69
40908;BME280;51055;59.436;24.778;2022-11-13T03:20:03;102439.72;;;8.67;83.57
40908;BME280;51055;59.436;24.778;2022-11-13T03:22:31;102442.34;;;8.67;84.03
40908;BME280;51055;59.436;24.778;2022-11-13T03:24:59;102432.78;;;8.65;84.46
40908;BME280;51055;59.436;24.778;2022-11-13T03:27:31;102434.50;;;8.66;84.37
40908;BME280;51055;59.436;24.778;2022-11-13T03:29:59;102430.13;;;8.65;84.28
40908;BME280;51055;59.436;24.778;2022-11-13T03:32:27;102433.78;;;8.62;84.29
40908;BME280;51055;59.436;24.778;2022-11-13T03:34:54;102440.84;;;8.62;83.93
40908;BME280;51055;59.436;24.778;2022-11-13T03:37:22;102445.28;;;8.61;84.04
40908;BME280;51055;59.436;24.778;2022-11-13T03:39:49;102453.94;;;8.65;83.75
40908;BME280;51055;59.436;24.778;2022-11-13T03:42:17;102459.44;;;8.60;83.97
40908;BME280;51055;59.436;24.778;2022-11-13T03:44:45;102450.69;;;8.58;84.09
40908;BME280;51055;59.436;24.778;2022-11-13T03:47:13;102463.13;;;8.56;84.61
40908;BME280;51055;59.436;24.778;2022-11-13T03:49:41;102462.28;;;8.56;85.31
40908;BME280;51055;59.436;24.778;2022-11-13T03:52:09;102470.22;;;8.56;85.24
40908;BME280;51055;59.436;24.778;2022-11-13T03:54:37;102467.56;;;8.56;85.82
40908;BME280;51055;59.436;24.778;2022-11-13T03:57:04;102472.06;;;8.54;85.66
40908;BME280;51055;59.436;24.778;2022-11-13T03:59:33;102472.13;;;8.52;85.68
40908;BME280;51055;59.436;24.778;2022-11-13T04:02:01;102472.13;;;8.52;85.62
40908;BME280;51055;59.436;24.778;2022-11-13T04:04:28;102477.50;;;8.51;85.80
40908;BME280;51055;59.436;24.778;2022-11-13T04:06:56;102487.22;;;8.50;86.01
40908;BME280;51055;59.436;24.778;2022-11-13T04:09:24;102486.25;;;8.51;85.87
40908;BME280;51055;59.436;24.778;2022-11-13T04:11:51;102481.78;;;8.53;85.84
40908;BME280;51055;59.436;24.778;2022-11-13T04:14:19;102494.28;;;8.50;85.78
40908;BME280;51055;59.436;24.778;2022-11-13T04:16:46;102497.78;;;8.50;86.33
40908;BME280;51055;59.436;24.778;2022-11-13T04:19:14;102489.19;;;8.45;86.37
40908;BME280;51055;59.436;24.778;2022-11-13T04:21:41;102498.84;;;8.46;86.56
40908;BME280;51055;59.436;24.778;2022-11-13T04:24:09;102494.53;;;8.44;86.33
40908;BME280;51055;59.436;24.778;2022-11-13T04:26:37;102496.38;;;8.42;86.86
40908;BME280;51055;59.436;24.778;2022-11-13T04:29:05;102502.63;;;8.41;87.16
40908;BME280;51055;59.436;24.778;2022-11-13T04:31:32;102504.31;;;8.42;86.90
40908;BME280;51055;59.436;24.778;2022-11-13T04:34:00;102514.03;;;8.41;87.39
40908;BME280;51055;59.436;24.778;2022-11-13T04:36:27;102507.91;;;8.41;87.49
40908;BME280;51055;59.436;24.778;2022-11-13T04:38:55;102500.81;;;8.41;87.31
40908;BME280;51055;59.436;24.778;2022-11-13T04:41:23;102517.59;;;8.40;87.38
40908;BME280;51055;59.436;24.778;2022-11-13T04:44:09;102510.47;;;8.42;87.37
40908;BME280;51055;59.436;24.778;2022-11-13T04:46:37;102507.91;;;8.41;87.58
40908;BME280;51055;59.436;24.778;2022-11-13T04:49:05;102528.19;;;8.40;87.93
40908;BME280;51055;59.436;24.778;2022-11-13T04:51:37;102527.19;;;8.43;88.31
40908;BME280;51055;59.436;24.778;2022-11-13T04:54:04;102528.97;;;8.42;88.27
40908;BME280;51055;59.436;24.778;2022-11-13T04:56:32;102530.75;;;8.42;88.32
40908;BME280;51055;59.436;24.778;2022-11-13T04:59:00;102529.09;;;8.39;88.45
40908;BME280;51055;59.436;24.778;2022-11-13T05:01:27;102527.50;;;8.35;88.78
40908;BME280;51055;59.436;24.778;2022-11-13T05:03:55;102530.16;;;8.35;88.95
40908;BME280;51055;59.436;24.778;2022-11-13T05:06:23;102535.44;;;8.35;89.22
40908;BME280;51055;59.436;24.778;2022-11-13T05:08:50;102526.72;;;8.33;89.28
40908;BME280;51055;59.436;24.778;2022-11-13T05:11:18;102534.66;;;8.33;89.38
40908;BME280;51055;59.436;24.778;2022-11-13T05:13:45;102538.22;;;8.32;89.30
40908;BME280;51055;59.436;24.778;2022-11-13T05:16:14;102539.97;;;8.31;89.32
40908;BME280;51055;59.436;24.778;2022-11-13T05:18:42;102539.97;;;8.31;89.28
40908;BME280;51055;59.436;24.778;2022-11-13T05:21:10;102543.50;;;8.32;89.22
40908;BME280;51055;59.436;24.778;2022-11-13T05:23:38;102549.72;;;8.31;89.14
40908;BME280;51055;59.436;24.778;2022-11-13T05:26:11;102554.25;;;8.27;88.96
40908;BME280;51055;59.436;24.778;2022-11-13T05:28:38;102551.56;;;8.29;89.30
40908;BME280;51055;59.436;24.778;2022-11-13T05:31:09;102554.28;;;8.26;88.96
40908;BME280;51055;59.436;24.778;2022-11-13T05:33:37;102553.50;;;8.24;89.20
40908;BME280;51055;59.436;24.778;2022-11-13T05:36:08;102564.09;;;8.24;89.59
40908;BME280;51055;59.436;24.778;2022-11-13T05:38:36;102563.22;;;8.23;90.10
40908;BME280;51055;59.436;24.778;2022-11-13T05:41:06;102570.22;;;8.24;89.85
40908;BME280;51055;59.436;24.778;2022-11-13T05:43:35;102576.44;;;8.23;89.71
40908;BME280;51055;59.436;24.778;2022-11-13T05:48:44;102577.28;;;8.24;90.03
40908;BME280;51055;59.436;24.778;2022-11-13T05:51:17;102579.94;;;8.24;90.21
40908;BME280;51055;59.436;24.778;2022-11-13T05:53:45;102586.13;;;8.23;89.75
40908;BME280;51055;59.436;24.778;2022-11-13T05:58:46;102594.97;;;8.22;89.64
40908;BME280;51055;59.436;24.778;2022-11-13T06:01:23;102589.69;;;8.22;89.76
40908;BME280;51055;59.436;24.778;2022-11-13T06:03:53;102588.03;;;8.19;90.24
40908;BME280;51055;59.436;24.778;2022-11-13T06:06:22;102601.09;;;8.24;90.16
40908;BME280;51055;59.436;24.778;2022-11-13T06:08:50;102595.94;;;8.21;89.77
40908;BME280;51055;59.436;24.778;2022-11-13T06:11:20;102602.16;;;8.18;90.29
40908;BME280;51055;59.436;24.778;2022-11-13T06:13:49;102607.28;;;8.23;90.06
40908;BME280;51055;59.436;24.778;2022-11-13T06:16:23;102608.31;;;8.19;90.02
40908;BME280;51055;59.436;24.778;2022-11-13T06:18:54;102618.03;;;8.18;90.42
40908;BME280;51055;59.436;24.778;2022-11-13T06:21:24;102609.19;;;8.19;90.30
40908;BME280;51055;59.436;24.778;2022-11-13T06:23:52;102612.75;;;8.18;90.15
40908;BME280;51055;59.436;24.778;2022-11-13T06:26:23;102620.88;;;8.14;90.29
40908;BME280;51055;59.436;24.778;2022-11-13T06:28:51;102622.56;;;8.15;90.12
40908;BME280;51055;59.436;24.778;2022-11-13T06:31:22;102619.94;;;8.15;90.40
40908;BME280;51055;59.436;24.778;2022-11-13T06:33:50;102630.47;;;8.16;90.12
40908;BME280;51055;59.436;24.778;2022-11-13T06:36:20;102619.88;;;8.16;90.28
40908;BME280;51055;59.436;24.778;2022-11-13T06:38:48;102624.19;;;8.19;90.32
40908;BME280;51055;59.436;24.778;2022-11-13T06:41:19;102621.66;;;8.16;90.36
40908;BME280;51055;59.436;24.778;2022-11-13T06:43:46;102622.53;;;8.16;90.23
40908;BME280;51055;59.436;24.778;2022-11-13T06:46:20;102628.72;;;8.15;90.29
40908;BME280;51055;59.436;24.778;2022-11-13T06:48:48;102635.78;;;8.15;90.37
40908;BME280;51055;59.436;24.778;2022-11-13T06:51:18;102634.13;;;8.12;90.42
40908;BME280;51055;59.436;24.778;2022-11-13T06:53:47;102636.72;;;8.14;90.43
40908;BME280;51055;59.436;24.778;2022-11-13T06:56:15;102641.94;;;8.15;90.26
40908;BME280;51055;59.436;24.778;2022-11-13T06:58:44;102641.06;;;8.15;90.16
40908;BME280;51055;59.436;24.778;2022-11-13T07:01:14;102642.81;;;8.16;90.06
40908;BME280;51055;59.436;24.778;2022-11-13T07:03:42;102641.91;;;8.17;90.26
40908;BME280;51055;59.436;24.778;2022-11-13T07:06:16;102650.69;;;8.17;90.10
40908;BME280;51055;59.436;24.778;2022-11-13T07:08:45;102646.28;;;8.18;90.15
40908;BME280;51055;59.436;24.778;2022-11-13T07:11:15;102654.25;;;8.16;90.24
40908;BME280;51055;59.436;24.778;2022-11-13T07:13:44;102649.81;;;8.17;90.42
40908;BME280;51055;59.436;24.778;2022-11-13T07:16:12;102650.50;;;8.22;90.65
40908;BME280;51055;59.436;24.778;2022-11-13T07:18:51;102653.84;;;8.27;90.59
40908;BME280;51055;59.436;24.778;2022-11-13T07:21:20;102661.69;;;8.30;89.78
40908;BME280;51055;59.436;24.778;2022-11-13T07:23:48;102669.41;;;8.34;89.76
40908;BME280;51055;59.436;24.778;2022-11-13T07:26:17;102666.72;;;8.36;89.45
40908;BME280;51055;59.436;24.778;2022-11-13T07:28:45;102680.59;;;8.41;89.30
40908;BME280;51055;59.436;24.778;2022-11-13T07:31:15;102677.91;;;8.43;89.36
40908;BME280;51055;59.436;24.778;2022-11-13T07:33:43;102691.03;;;8.46;89.36
40908;BME280;51055;59.436;24.778;2022-11-13T07:36:13;102689.16;;;8.48;88.94
40908;BME280;51055;59.436;24.778;2022-11-13T07:38:41;102687.38;;;8.48;88.65
40908;BME280;51055;59.436;24.778;2022-11-13T07:41:09;102690.84;;;8.50;88.54
40908;BME280;51055;59.436;24.778;2022-11-13T07:43:37;102701.34;;;8.52;88.30
40908;BME280;51055;59.436;24.778;2022-11-13T07:46:04;102702.19;;;8.54;88.32
40908;BME280;51055;59.436;24.778;2022-11-13T07:48:32;102714.41;;;8.56;87.99
40908;BME280;51055;59.436;24.778;2022-11-13T07:51:01;102718.66;;;8.60;88.16
40908;BME280;51055;59.436;24.778;2022-11-13T07:53:29;102716.84;;;8.61;87.30
40908;BME280;51055;59.436;24.778;2022-11-13T07:56:01;102719.63;;;8.58;87.34
40908;BME280;51055;59.436;24.778;2022-11-13T07:58:29;102722.22;;;8.59;87.20
40908;BME280;51055;59.436;24.778;2022-11-13T08:01:02;102726.75;;;8.56;87.14
40908;BME280;51055;59.436;24.778;2022-11-13T08:03:31;102728.66;;;8.52;87.45
40908;BME280;51055;59.436;24.778;2022-11-13T08:06:03;102736.69;;;8.51;87.61
40908;BME280;51055;59.436;24.778;2022-11-13T08:08:32;102737.72;;;8.47;87.81
40908;BME280;51055;59.436;24.778;2022-11-13T08:11:07;102739.50;;;8.46;88.08
40908;BME280;51055;59.436;24.778;2022-11-13T08:13:35;102739.53;;;8.45;88.46
40908;BME280;51055;59.436;24.778;2022-11-13T08:16:03;102744.81;;;8.45;88.55
40908;BME280;51055;59.436;24.778;2022-11-13T08:18:32;102756.09;;;8.50;88.79
40908;BME280;51055;59.436;24.778;2022-11-13T08:21:01;102761.19;;;8.54;88.00
40908;BME280;51055;59.436;24.778;2022-11-13T08:23:30;102772.34;;;8.62;87.85
40908;BME280;51055;59.436;24.778;2022-11-13T08:26:03;102774.94;;;8.64;87.87
40908;BME280;51055;59.436;24.778;2022-11-13T08:28:30;102771.38;;;8.65;87.97
40908;BME280;51055;59.436;24.778;2022-11-13T08:30:58;102766.19;;;8.62;87.63
40908;BME280;51055;59.436;24.778;2022-11-13T08:33:26;102771.50;;;8.62;87.46
40908;BME280;51055;59.436;24.778;2022-11-13T08:35:56;102774.34;;;8.57;87.28
40908;BME280;51055;59.436;24.778;2022-11-13T08:38:25;102777.94;;;8.55;87.54
40908;BME280;51055;59.436;24.778;2022-11-13T08:40:57;102776.41;;;8.49;87.80
40908;BME280;51055;59.436;24.778;2022-11-13T08:43:31;102781.69;;;8.49;88.00
40908;BME280;51055;59.436;24.778;2022-11-13T08:45:58;102779.16;;;8.46;88.50
40908;BME280;51055;59.436;24.778;2022-11-13T08:48:26;102781.91;;;8.43;88.50
40908;BME280;51055;59.436;24.778;2022-11-13T08:50:55;102782.91;;;8.41;88.88
40908;BME280;51055;59.436;24.778;2022-11-13T08:53:24;102788.34;;;8.36;89.26
40908;BME280;51055;59.436;24.778;2022-11-13T08:55:52;102788.41;;;8.34;88.93
40908;BME280;51055;59.436;24.778;2022-11-13T08:58:20;102796.25;;;8.38;89.38
40908;BME280;51055;59.436;24.778;2022-11-13T09:00:47;102787.50;;;8.35;89.27
40908;BME280;51055;59.436;24.778;2022-11-13T09:03:15;102795.41;;;8.35;89.36
40908;BME280;51055;59.436;24.778;2022-11-13T09:05:43;102796.34;;;8.34;89.39
40908;BME280;51055;59.436;24.778;2022-11-13T09:08:11;102800.72;;;8.35;89.54
40908;BME280;51055;59.436;24.778;2022-11-13T09:10:39;102805.88;;;8.38;89.63
40908;BME280;51055;59.436;24.778;2022-11-13T09:13:08;102811.25;;;8.37;89.72
40908;BME280;51055;59.436;24.778;2022-11-13T09:15:37;102818.13;;;8.41;89.84
40908;BME280;51055;59.436;24.778;2022-11-13T09:18:06;102820.03;;;8.38;89.85
40908;BME280;51055;59.436;24.778;2022-11-13T09:20:34;102820.09;;;8.36;90.00
40908;BME280;51055;59.436;24.778;2022-11-13T09:23:04;102833.25;;;8.38;90.35
40908;BME280;51055;59.436;24.778;2022-11-13T09:25:34;102835.94;;;8.36;90.19
40908;BME280;51055;59.436;24.778;2022-11-13T09:28:05;102836.84;;;8.35;90.04
40908;BME280;51055;59.436;24.778;2022-11-13T09:30:33;102842.25;;;8.32;89.95
40908;BME280;51055;59.436;24.778;2022-11-13T09:33:00;102841.34;;;8.33;90.21
40908;BME280;51055;59.436;24.778;2022-11-13T09:35:29;102840.50;;;8.32;90.45
40908;BME280;51055;59.436;24.778;2022-11-13T09:38:06;102844.00;;;8.33;90.38
40908;BME280;51055;59.436;24.778;2022-11-13T09:43:19;102841.28;;;8.34;90.28
40908;BME280;51055;59.436;24.778;2022-11-13T09:45:51;102840.50;;;8.32;90.25
40908;BME280;51055;59.436;24.778;2022-11-13T09:50:51;102848.41;;;8.32;89.95
40908;BME280;51055;59.436;24.778;2022-11-13T09:53:20;102845.78;;;8.32;90.14
40908;BME280;51055;59.436;24.778;2022-11-13T09:55:57;102855.56;;;8.30;90.18
40908;BME280;51055;59.436;24.778;2022-11-13T10:01:52;102852.72;;;8.35;90.37
40908;BME280;51055;59.436;24.778;2022-11-13T10:12:53;102868.59;;;8.35;90.14
40908;BME280;51055;59.436;24.778;2022-11-13T10:15:20;102875.63;;;8.36;90.17
40908;BME280;51055;59.436;24.778;2022-11-13T10:17:55;102869.56;;;8.32;90.42
40908;BME280;51055;59.436;24.778;2022-11-13T10:20:38;102869.69;;;8.29;90.23
40908;BME280;51055;59.436;24.778;2022-11-13T10:23:14;102876.72;;;8.30;89.88
40908;BME280;51055;59.436;24.778;2022-11-13T10:25:43;102882.00;;;8.30;89.81
40908;BME280;51055;59.436;24.778;2022-11-13T10:28:16;102881.91;;;8.32;89.86
40908;BME280;51055;59.436;24.778;2022-11-13T10:31:04;102885.50;;;8.31;89.89
40908;BME280;51055;59.436;24.778;2022-11-13T10:33:32;102882.88;;;8.31;90.36
40908;BME280;51055;59.436;24.778;2022-11-13T10:39:04;102884.56;;;8.32;89.90
40908;BME280;51055;59.436;24.778;2022-11-13T10:41:47;102888.03;;;8.34;90.36
40908;BME280;51055;59.436;24.778;2022-11-13T10:44:34;102890.56;;;8.37;90.32
40908;BME280;51055;59.436;24.778;2022-11-13T10:47:14;102889.63;;;8.38;90.26
40908;BME280;51055;59.436;24.778;2022-11-13T10:49:42;102894.81;;;8.41;90.24
40908;BME280;51055;59.436;24.778;2022-11-13T10:52:26;102890.28;;;8.45;90.22
40908;BME280;51055;59.436;24.778;2022-11-13T10:55:50;102894.66;;;8.46;90.70
40908;BME280;51055;59.436;24.778;2022-11-13T10:57:57;102893.91;;;8.42;90.97
40908;BME280;51055;59.436;24.778;2022-11-13T11:00:35;102901.94;;;8.39;91.25
40908;BME280;51055;59.436;24.778;2022-11-13T11:03:07;102896.88;;;8.33;91.38
40908;BME280;51055;59.436;24.778;2022-11-13T11:05:35;102891.63;;;8.31;91.48
40908;BME280;51055;59.436;24.778;2022-11-13T11:08:07;102900.53;;;8.29;91.82
40908;BME280;51055;59.436;24.778;2022-11-13T11:10:38;102898.81;;;8.28;91.81
40908;BME280;51055;59.436;24.778;2022-11-13T11:13:28;102909.38;;;8.28;91.96
40908;BME280;51055;59.436;24.778;2022-11-13T11:15:58;102905.91;;;8.26;92.46
40908;BME280;51055;59.436;24.778;2022-11-13T11:18:36;102906.00;;;8.23;92.34
40908;BME280;51055;59.436;24.778;2022-11-13T11:21:08;102907.88;;;8.21;92.58
40908;BME280;51055;59.436;24.778;2022-11-13T11:26:32;102906.88;;;8.23;93.10
40908;BME280;51055;59.436;24.778;2022-11-13T11:29:13;102906.13;;;8.20;93.08
40908;BME280;51055;59.436;24.778;2022-11-13T11:31:57;102912.31;;;8.19;93.35
40908;BME280;51055;59.436;24.778;2022-11-13T11:34:34;102914.16;;;8.17;93.80
40908;BME280;51055;59.436;24.778;2022-11-13T11:37:14;102915.06;;;8.16;93.77
40908;BME280;51055;59.436;24.778;2022-11-13T11:39:49;102909.03;;;8.12;94.08
40908;BME280;51055;59.436;24.778;2022-11-13T11:45:12;102924.00;;;8.12;94.72
40908;BME280;51055;59.436;24.778;2022-11-13T11:47:42;102921.38;;;8.12;94.87
40908;BME280;51055;59.436;24.778;2022-11-13T11:50:14;102925.75;;;8.13;94.96
40908;BME280;51055;59.436;24.778;2022-11-13T11:52:54;102911.75;;;8.11;95.05
40908;BME280;51055;59.436;24.778;2022-11-13T12:00:37;102921.44;;;8.10;94.96
40908;BME280;51055;59.436;24.778;2022-11-13T12:09:02;102917.06;;;8.09;95.57
40908;BME280;51055;59.436;24.778;2022-11-13T12:11:37;102918.84;;;8.09;95.69
40908;BME280;51055;59.436;24.778;2022-11-13T12:16:39;102912.75;;;8.07;95.98
40908;BME280;51055;59.436;24.778;2022-11-13T12:25:10;102914.75;;;8.00;96.94
40908;BME280;51055;59.436;24.778;2022-11-13T12:27:56;102913.88;;;8.00;97.27
40908;BME280;51055;59.436;24.778;2022-11-13T12:36:12;102925.31;;;8.00;97.48
40908;BME280;51055;59.436;24.778;2022-11-13T12:41:27;102919.16;;;8.00;97.84
40908;BME280;51055;59.436;24.778;2022-11-13T12:44:12;102916.47;;;8.01;97.74
40908;BME280;51055;59.436;24.778;2022-11-13T12:46:44;102912.91;;;8.02;97.84
40908;BME280;51055;59.436;24.778;2022-11-13T12:52:19;102917.50;;;7.97;97.89
40908;BME280;51055;59.436;24.778;2022-11-13T12:54:49;102908.69;;;7.97;97.79
40908;BME280;51055;59.436;24.778;2022-11-13T12:57:22;102908.72;;;7.95;98.00
40908;BME280;51055;59.436;24.778;2022-11-13T12:59:57;102914.94;;;7.94;98.28
40908;BME280;51055;59.436;24.778;2022-11-13T13:02:37;102909.69;;;7.93;98.46
40908;BME280;51055;59.436;24.778;2022-11-13T13:10:40;102909.66;;;7.94;98.60
40908;BME280;51055;59.436;24.778;2022-11-13T13:13:19;102907.06;;;7.93;98.80
40908;BME280;51055;59.436;24.778;2022-11-13T13:15:57;102915.00;;;7.93;98.68
40908;BME280;51055;59.436;24.778;2022-11-13T13:18:29;102909.78;;;7.91;98.74
40908;BME280;51055;59.436;24.778;2022-11-13T13:21:11;102918.63;;;7.88;98.68
40908;BME280;51055;59.436;24.778;2022-11-13T13:23:41;102918.75;;;7.85;98.73
40908;BME280;51055;59.436;24.778;2022-11-13T13:28:42;102923.19;;;7.85;98.89
40908;BME280;51055;59.436;24.778;2022-11-13T13:31:33;102927.59;;;7.84;99.24
40908;BME280;51055;59.436;24.778;2022-11-13T13:34:45;102924.97;;;7.84;99.17
40908;BME280;51055;59.436;24.778;2022-11-13T13:43:02;102925.09;;;7.80;99.61
40908;BME280;51055;59.436;24.778;2022-11-13T13:48:51;102920.00;;;7.75;100.00
40908;BME280;51055;59.436;24.778;2022-11-13T13:51:31;102912.91;;;7.76;100.00
40908;BME280;51055;59.436;24.778;2022-11-13T13:54:04;102921.75;;;7.75;100.00
40908;BME280;51055;59.436;24.778;2022-11-13T13:56:35;102919.22;;;7.72;100.00
40908;BME280;51055;59.436;24.778;2022-11-13T13:59:14;102927.25;;;7.69;100.00
40908;BME280;51055;59.436;24.778;2022-11-13T14:01:54;102923.78;;;7.67;100.00
40908;BME280;51055;59.436;24.778;2022-11-13T14:04:32;102929.97;;;7.66;100.00
40908;BME280;51055;59.436;24.778;2022-11-13T14:07:01;102930.03;;;7.64;100.00
40908;BME280;51055;59.436;24.778;2022-11-13T14:09:30;102936.22;;;7.63;100.00
40908;BME280;51055;59.436;24.778;2022-11-13T14:12:04;102940.59;;;7.64;100.00
40908;BME280;51055;59.436;24.778;2022-11-13T14:14:38;102934.44;;;7.64;100.00
40908;BME280;51055;59.436;24.778;2022-11-13T14:17:08;102931.91;;;7.61;100.00
40908;BME280;51055;59.436;24.778;2022-11-13T14:19:37;102936.38;;;7.59;100.00
40908;BME280;51055;59.436;24.778;2022-11-13T14:22:07;102933.78;;;7.57;100.00
40908;BME280;51055;59.436;24.778;2022-11-13T14:24:51;102934.69;;;7.56;100.00
40908;BME280;51055;59.436;24.778;2022-11-13T14:27:23;102935.66;;;7.54;100.00
40908;BME280;51055;59.436;24.778;2022-11-13T14:29:57;102941.03;;;7.51;100.00
40908;BME280;51055;59.436;24.778;2022-11-13T14:32:37;102931.38;;;7.50;100.00
40908;BME280;51055;59.436;24.778;2022-11-13T14:35:20;102936.75;;;7.47;100.00
40908;BME280;51055;59.436;24.778;2022-11-13T14:37:49;102935.81;;;7.49;100.00
40908;BME280;51055;59.436;24.778;2022-11-13T14:40:24;102941.91;;;7.51;100.00